• Join FlightAware (Why Join?)
  • Login
  • US Flag 
08:03PM EDT


 

Airport Tracker/Info


-or-


 

Live Flight TrackerFlight Track Log ✈ ROX102 ✈ 10-Jul-2013 ✈ TJSJ / SJU - TIST / STT

Flight Track Log - Related Links

Times and Time Zones

All times are in EDT time to prevent confusion due to time zone crossing. See the ROX102 flight status page for this flight to view local times or setup timezone preferences in your user account.

Time Position Orientation Groundspeed Altitude Reporting Facility
EDT Latitude Longitude Course Direction KTS MPH feet Rate Location/Type
07:21AM 18.4333 -65.9667 90° East 110 127 900  Level San Juan Center
07:22AM 18.4333 -65.9333 90° East 130 150 2,000 1,080 Climbing San Juan Center
07:23AM 18.4500 -65.9000 62° Northeast 120 138 3,100 1,020 Climbing San Juan Center
07:24AM 18.4500 -65.8667 90° East 120 138 4,100 900 Climbing San Juan Center
07:25AM 18.4667 -65.8333 62° Northeast 130 150 5,000 420 Climbing San Juan Center
07:26AM 18.4500 -65.8000 118° Southeast 160 184 5,000  Level San Juan Center
07:27AM 18.4500 -65.7667 90° East 140 161 5,000  Level San Juan Center
07:28AM 18.4333 -65.7167 109° East 160 184 5,000  Level San Juan Center
07:29AM 18.4167 -65.6667 109° East 160 184 5,000  Level San Juan Center
07:30AM 18.4167 -65.6333 90° East 160 184 5,000  Level San Juan Center
07:31AM 18.4000 -65.5833 109° East 160 184 5,000  Level San Juan Center
07:32AM 18.4000 -65.5333 90° East 160 184 5,000  Level San Juan Center
07:33AM 18.3833 -65.5000 118° Southeast 160 184 5,000 -60 Level San Juan Center
07:34AM 18.3833 -65.4500 90° East 150 173 4,900 -420 Descending San Juan Center
07:35AM 18.3667 -65.4000 109° East 170 196 4,200 -720 Descending San Juan Center
07:36AM 18.3500 -65.3500 109° East 160 184 3,500 -600 Descending San Juan Center
07:37AM 18.3500 -65.3000 90° East 150 173 3,000 -300 Descending San Juan Center
07:38AM 18.3333 -65.2667 118° Southeast 140 161 3,000  Level San Juan Center
07:39AM 18.3167 -65.2333 118° Southeast 150 173 3,000 -300 Level San Juan Center
07:40AM 18.3167 -65.1833 90° East 160 184 2,500 -360 Descending San Juan Center
07:41AM 18.3167 -65.1500 90° East 150 173 2,300 -240 Descending San Juan Center
07:42AM 18.3167 -65.1000 90° East 130 150 2,100 -300 Descending San Juan Center
07:43AM 18.3167 -65.0667 90° East 100 115 1,800 -420 Descending San Juan Center
07:44AM 18.3333 -65.0333 62° Northeast 110 127 1,300 -600 Descending San Juan Center
07:45AM 18.3333 -65.0000 90° East 120 138 600 -720 Descending San Juan Center